sensor_id;sensor_type;location;lat;lon;timestamp;pressure;altitude;pressure_sealevel;temperature
45850;BMP180;10739;52.198;20.908;2024-03-23T00:53:39;99470.00;;;11.40
45850;BMP180;10739;52.198;20.908;2024-03-23T00:56:05;99467.00;;;11.50
45850;BMP180;10739;52.198;20.908;2024-03-23T00:58:32;99461.00;;;11.40
45850;BMP180;10739;52.198;20.908;2024-03-23T01:00:58;99460.00;;;11.50
45850;BMP180;10739;52.198;20.908;2024-03-23T01:03:24;99451.00;;;11.30
45850;BMP180;10739;52.198;20.908;2024-03-23T01:05:50;99456.00;;;11.40
45850;BMP180;10739;52.198;20.908;2024-03-23T01:08:16;99454.00;;;11.50
45850;BMP180;10739;52.198;20.908;2024-03-23T01:10:43;99452.00;;;11.30
45850;BMP180;10739;52.198;20.908;2024-03-23T01:13:09;99458.00;;;11.30
45850;BMP180;10739;52.198;20.908;2024-03-23T01:15:35;99454.00;;;11.50
45850;BMP180;10739;52.198;20.908;2024-03-23T01:18:02;99440.00;;;11.20
45850;BMP180;10739;52.198;20.908;2024-03-23T01:20:28;99433.00;;;11.60
45850;BMP180;10739;52.198;20.908;2024-03-23T01:22:54;99432.00;;;11.20
45850;BMP180;10739;52.198;20.908;2024-03-23T01:25:20;99435.00;;;11.30
45850;BMP180;10739;52.198;20.908;2024-03-23T01:27:46;99435.00;;;11.30
45850;BMP180;10739;52.198;20.908;2024-03-23T01:30:12;99436.00;;;11.30
45850;BMP180;10739;52.198;20.908;2024-03-23T01:32:40;99425.00;;;11.50
45850;BMP180;10739;52.198;20.908;2024-03-23T01:35:06;99435.00;;;11.40
45850;BMP180;10739;52.198;20.908;2024-03-23T01:37:32;99429.00;;;11.60
45850;BMP180;10739;52.198;20.908;2024-03-23T01:39:58;99439.00;;;11.60
45850;BMP180;10739;52.198;20.908;2024-03-23T01:42:24;99437.00;;;11.90
45850;BMP180;10739;52.198;20.908;2024-03-23T01:44:50;99436.00;;;12.00
45850;BMP180;10739;52.198;20.908;2024-03-23T01:47:16;99427.00;;;11.70
45850;BMP180;10739;52.198;20.908;2024-03-23T01:49:43;99422.00;;;11.50
45850;BMP180;10739;52.198;20.908;2024-03-23T01:52:09;99419.00;;;11.70
45850;BMP180;10739;52.198;20.908;2024-03-23T01:54:36;99416.00;;;11.40
45850;BMP180;10739;52.198;20.908;2024-03-23T01:57:03;99413.00;;;11.60
45850;BMP180;10739;52.198;20.908;2024-03-23T01:59:29;99415.00;;;11.70
45850;BMP180;10739;52.198;20.908;2024-03-23T02:01:55;99417.00;;;11.70
45850;BMP180;10739;52.198;20.908;2024-03-23T02:04:22;99411.00;;;11.50
45850;BMP180;10739;52.198;20.908;2024-03-23T02:06:48;99408.00;;;11.80
45850;BMP180;10739;52.198;20.908;2024-03-23T02:09:15;99403.00;;;11.70
45850;BMP180;10739;52.198;20.908;2024-03-23T02:11:42;99412.00;;;11.80
45850;BMP180;10739;52.198;20.908;2024-03-23T02:14:08;99412.00;;;11.90
45850;BMP180;10739;52.198;20.908;2024-03-23T02:16:34;99409.00;;;11.90
45850;BMP180;10739;52.198;20.908;2024-03-23T02:19:00;99409.00;;;11.90
45850;BMP180;10739;52.198;20.908;2024-03-23T02:21:26;99399.00;;;11.70
45850;BMP180;10739;52.198;20.908;2024-03-23T02:23:53;99398.00;;;12.10
45850;BMP180;10739;52.198;20.908;2024-03-23T02:26:19;99391.00;;;11.80
45850;BMP180;10739;52.198;20.908;2024-03-23T02:28:46;99398.00;;;12.10
45850;BMP180;10739;52.198;20.908;2024-03-23T02:31:12;99397.00;;;12.00
45850;BMP180;10739;52.198;20.908;2024-03-23T02:33:39;99397.00;;;12.20
45850;BMP180;10739;52.198;20.908;2024-03-23T02:36:05;99392.00;;;11.80
45850;BMP180;10739;52.198;20.908;2024-03-23T02:38:31;99393.00;;;11.80
45850;BMP180;10739;52.198;20.908;2024-03-23T02:41:05;99389.00;;;11.90
45850;BMP180;10739;52.198;20.908;2024-03-23T02:43:31;99391.00;;;12.10
45850;BMP180;10739;52.198;20.908;2024-03-23T02:45:57;99387.00;;;12.00
45850;BMP180;10739;52.198;20.908;2024-03-23T02:48:24;99382.00;;;11.90
45850;BMP180;10739;52.198;20.908;2024-03-23T02:50:50;99382.00;;;12.10
45850;BMP180;10739;52.198;20.908;2024-03-23T02:53:16;99369.00;;;11.90
45850;BMP180;10739;52.198;20.908;2024-03-23T02:55:43;99367.00;;;11.70
45850;BMP180;10739;52.198;20.908;2024-03-23T02:58:09;99361.00;;;11.90
45850;BMP180;10739;52.198;20.908;2024-03-23T03:00:35;99365.00;;;11.90
45850;BMP180;10739;52.198;20.908;2024-03-23T03:03:02;99370.00;;;11.90
45850;BMP180;10739;52.198;20.908;2024-03-23T03:05:29;99353.00;;;12.00
45850;BMP180;10739;52.198;20.908;2024-03-23T03:07:55;99350.00;;;12.00
45850;BMP180;10739;52.198;20.908;2024-03-23T03:10:21;99352.00;;;12.20
45850;BMP180;10739;52.198;20.908;2024-03-23T03:12:47;99345.00;;;12.10
45850;BMP180;10739;52.198;20.908;2024-03-23T03:15:13;99353.00;;;12.10
45850;BMP180;10739;52.198;20.908;2024-03-23T03:17:39;99347.00;;;12.00
45850;BMP180;10739;52.198;20.908;2024-03-23T03:20:05;99345.00;;;12.30
45850;BMP180;10739;52.198;20.908;2024-03-23T03:22:32;99345.00;;;12.00
45850;BMP180;10739;52.198;20.908;2024-03-23T03:24:58;99350.00;;;12.00
45850;BMP180;10739;52.198;20.908;2024-03-23T03:27:25;99351.00;;;11.90
45850;BMP180;10739;52.198;20.908;2024-03-23T03:29:52;99351.00;;;12.20
45850;BMP180;10739;52.198;20.908;2024-03-23T03:32:18;99347.00;;;11.90
45850;BMP180;10739;52.198;20.908;2024-03-23T03:34:44;99357.00;;;11.90
45850;BMP180;10739;52.198;20.908;2024-03-23T03:37:10;99352.00;;;12.20
45850;BMP180;10739;52.198;20.908;2024-03-23T03:39:36;99358.00;;;12.00
45850;BMP180;10739;52.198;20.908;2024-03-23T03:42:03;99351.00;;;12.20
45850;BMP180;10739;52.198;20.908;2024-03-23T03:44:32;99356.00;;;12.40
45850;BMP180;10739;52.198;20.908;2024-03-23T03:46:58;99349.00;;;12.00
45850;BMP180;10739;52.198;20.908;2024-03-23T03:49:24;99343.00;;;12.00
45850;BMP180;10739;52.198;20.908;2024-03-23T03:51:50;99349.00;;;12.20
45850;BMP180;10739;52.198;20.908;2024-03-23T03:54:16;99339.00;;;11.90
45850;BMP180;10739;52.198;20.908;2024-03-23T03:56:42;99349.00;;;11.70
45850;BMP180;10739;52.198;20.908;2024-03-23T03:59:08;99337.00;;;12.00
45850;BMP180;10739;52.198;20.908;2024-03-23T04:01:35;99339.00;;;12.00
45850;BMP180;10739;52.198;20.908;2024-03-23T04:04:01;99335.00;;;12.10
45850;BMP180;10739;52.198;20.908;2024-03-23T04:06:27;99328.00;;;11.80
45850;BMP180;10739;52.198;20.908;2024-03-23T04:08:54;99337.00;;;12.20
45850;BMP180;10739;52.198;20.908;2024-03-23T04:11:20;99330.00;;;12.00
45850;BMP180;10739;52.198;20.908;2024-03-23T04:13:46;99334.00;;;12.10
45850;BMP180;10739;52.198;20.908;2024-03-23T04:16:24;99333.00;;;11.90
45850;BMP180;10739;52.198;20.908;2024-03-23T04:18:51;99327.00;;;11.80
45850;BMP180;10739;52.198;20.908;2024-03-23T04:21:17;99323.00;;;11.90
45850;BMP180;10739;52.198;20.908;2024-03-23T04:23:42;99322.00;;;11.90
45850;BMP180;10739;52.198;20.908;2024-03-23T04:26:09;99312.00;;;12.10
45850;BMP180;10739;52.198;20.908;2024-03-23T04:28:35;99310.00;;;11.90
45850;BMP180;10739;52.198;20.908;2024-03-23T04:31:05;99308.00;;;12.00
45850;BMP180;10739;52.198;20.908;2024-03-23T04:33:31;99300.00;;;12.10
45850;BMP180;10739;52.198;20.908;2024-03-23T04:35:57;99310.00;;;12.10
45850;BMP180;10739;52.198;20.908;2024-03-23T04:38:23;99310.00;;;12.10
45850;BMP180;10739;52.198;20.908;2024-03-23T04:40:59;99310.00;;;12.00
45850;BMP180;10739;52.198;20.908;2024-03-23T04:43:26;99311.00;;;12.10
45850;BMP180;10739;52.198;20.908;2024-03-23T04:45:52;99299.00;;;12.10
45850;BMP180;10739;52.198;20.908;2024-03-23T04:48:21;99294.00;;;12.00
45850;BMP180;10739;52.198;20.908;2024-03-23T04:50:55;99297.00;;;12.00
45850;BMP180;10739;52.198;20.908;2024-03-23T04:53:24;99287.00;;;12.10
45850;BMP180;10739;52.198;20.908;2024-03-23T04:55:58;99278.00;;;12.10
45850;BMP180;10739;52.198;20.908;2024-03-23T04:58:25;99275.00;;;12.20
45850;BMP180;10739;52.198;20.908;2024-03-23T05:00:56;99284.00;;;12.10
45850;BMP180;10739;52.198;20.908;2024-03-23T05:03:22;99285.00;;;11.90
45850;BMP180;10739;52.198;20.908;2024-03-23T05:05:49;99288.00;;;12.00
45850;BMP180;10739;52.198;20.908;2024-03-23T05:08:16;99285.00;;;11.90
45850;BMP180;10739;52.198;20.908;2024-03-23T05:10:43;99282.00;;;11.90
45850;BMP180;10739;52.198;20.908;2024-03-23T05:13:09;99282.00;;;11.90
45850;BMP180;10739;52.198;20.908;2024-03-23T05:15:36;99289.00;;;11.90
45850;BMP180;10739;52.198;20.908;2024-03-23T05:18:02;99283.00;;;11.80
45850;BMP180;10739;52.198;20.908;2024-03-23T05:20:28;99282.00;;;11.90
45850;BMP180;10739;52.198;20.908;2024-03-23T05:22:55;99276.00;;;11.90
45850;BMP180;10739;52.198;20.908;2024-03-23T05:25:21;99273.00;;;11.90
45850;BMP180;10739;52.198;20.908;2024-03-23T05:27:47;99272.00;;;12.00
45850;BMP180;10739;52.198;20.908;2024-03-23T05:30:13;99273.00;;;12.20
45850;BMP180;10739;52.198;20.908;2024-03-23T05:32:40;99275.00;;;12.10
45850;BMP180;10739;52.198;20.908;2024-03-23T05:35:10;99276.00;;;12.10
45850;BMP180;10739;52.198;20.908;2024-03-23T05:37:36;99278.00;;;11.90
45850;BMP180;10739;52.198;20.908;2024-03-23T05:40:03;99271.00;;;12.10
45850;BMP180;10739;52.198;20.908;2024-03-23T05:42:30;99273.00;;;12.00
45850;BMP180;10739;52.198;20.908;2024-03-23T05:44:56;99262.00;;;12.10
45850;BMP180;10739;52.198;20.908;2024-03-23T05:47:22;99268.00;;;12.00
45850;BMP180;10739;52.198;20.908;2024-03-23T05:49:48;99260.00;;;12.00
45850;BMP180;10739;52.198;20.908;2024-03-23T05:52:14;99253.00;;;12.20
45850;BMP180;10739;52.198;20.908;2024-03-23T05:54:40;99267.00;;;12.00
45850;BMP180;10739;52.198;20.908;2024-03-23T05:57:09;99269.00;;;12.20
45850;BMP180;10739;52.198;20.908;2024-03-23T05:59:35;99254.00;;;12.20
45850;BMP180;10739;52.198;20.908;2024-03-23T06:02:01;99247.00;;;12.20
45850;BMP180;10739;52.198;20.908;2024-03-23T06:04:27;99249.00;;;12.20
45850;BMP180;10739;52.198;20.908;2024-03-23T06:06:53;99243.00;;;12.20
45850;BMP180;10739;52.198;20.908;2024-03-23T06:09:20;99238.00;;;12.20
45850;BMP180;10739;52.198;20.908;2024-03-23T06:11:46;99252.00;;;12.00
45850;BMP180;10739;52.198;20.908;2024-03-23T06:14:12;99253.00;;;12.10
45850;BMP180;10739;52.198;20.908;2024-03-23T06:16:38;99255.00;;;12.20
45850;BMP180;10739;52.198;20.908;2024-03-23T06:19:04;99260.00;;;12.00
45850;BMP180;10739;52.198;20.908;2024-03-23T06:21:33;99241.00;;;12.20
45850;BMP180;10739;52.198;20.908;2024-03-23T06:23:59;99244.00;;;12.40
45850;BMP180;10739;52.198;20.908;2024-03-23T06:26:25;99244.00;;;12.60
45850;BMP180;10739;52.198;20.908;2024-03-23T06:28:51;99246.00;;;12.50
45850;BMP180;10739;52.198;20.908;2024-03-23T06:31:17;99246.00;;;12.40
45850;BMP180;10739;52.198;20.908;2024-03-23T06:33:44;99245.00;;;12.40
45850;BMP180;10739;52.198;20.908;2024-03-23T06:36:11;99246.00;;;12.40
45850;BMP180;10739;52.198;20.908;2024-03-23T06:38:37;99247.00;;;12.40
45850;BMP180;10739;52.198;20.908;2024-03-23T06:41:08;99244.00;;;12.50
45850;BMP180;10739;52.198;20.908;2024-03-23T06:43:34;99236.00;;;12.70
45850;BMP180;10739;52.198;20.908;2024-03-23T06:46:03;99227.00;;;12.70
45850;BMP180;10739;52.198;20.908;2024-03-23T06:48:30;99222.00;;;12.50
45850;BMP180;10739;52.198;20.908;2024-03-23T06:50:57;99217.00;;;12.70
45850;BMP180;10739;52.198;20.908;2024-03-23T06:53:23;99209.00;;;12.60
45850;BMP180;10739;52.198;20.908;2024-03-23T06:55:53;99206.00;;;12.60
45850;BMP180;10739;52.198;20.908;2024-03-23T06:58:21;99204.00;;;12.80
45850;BMP180;10739;52.198;20.908;2024-03-23T07:00:47;99205.00;;;12.60
45850;BMP180;10739;52.198;20.908;2024-03-23T07:03:14;99214.00;;;12.80
45850;BMP180;10739;52.198;20.908;2024-03-23T07:05:40;99211.00;;;12.50
45850;BMP180;10739;52.198;20.908;2024-03-23T07:08:07;99211.00;;;12.50
45850;BMP180;10739;52.198;20.908;2024-03-23T07:10:34;99205.00;;;12.60
45850;BMP180;10739;52.198;20.908;2024-03-23T07:13:00;99213.00;;;12.40
45850;BMP180;10739;52.198;20.908;2024-03-23T07:15:26;99210.00;;;12.30
45850;BMP180;10739;52.198;20.908;2024-03-23T07:17:52;99214.00;;;12.50
45850;BMP180;10739;52.198;20.908;2024-03-23T07:20:18;99203.00;;;12.40
45850;BMP180;10739;52.198;20.908;2024-03-23T07:22:46;99198.00;;;12.40
45850;BMP180;10739;52.198;20.908;2024-03-23T07:25:13;99205.00;;;12.40
45850;BMP180;10739;52.198;20.908;2024-03-23T07:27:39;99195.00;;;12.40
45850;BMP180;10739;52.198;20.908;2024-03-23T07:30:07;99197.00;;;12.40
45850;BMP180;10739;52.198;20.908;2024-03-23T07:32:35;99206.00;;;12.40
45850;BMP180;10739;52.198;20.908;2024-03-23T07:35:02;99199.00;;;12.20
45850;BMP180;10739;52.198;20.908;2024-03-23T07:37:29;99196.00;;;12.30
45850;BMP180;10739;52.198;20.908;2024-03-23T07:39:56;99193.00;;;12.40
45850;BMP180;10739;52.198;20.908;2024-03-23T07:42:23;99185.00;;;12.50
45850;BMP180;10739;52.198;20.908;2024-03-23T07:44:51;99178.00;;;12.60
45850;BMP180;10739;52.198;20.908;2024-03-23T07:47:17;99189.00;;;12.80
45850;BMP180;10739;52.198;20.908;2024-03-23T07:49:44;99169.00;;;12.70
45850;BMP180;10739;52.198;20.908;2024-03-23T07:52:10;99179.00;;;12.80
45850;BMP180;10739;52.198;20.908;2024-03-23T07:54:36;99158.00;;;13.10
45850;BMP180;10739;52.198;20.908;2024-03-23T07:57:02;99163.00;;;13.10
45850;BMP180;10739;52.198;20.908;2024-03-23T07:59:28;99159.00;;;13.10
45850;BMP180;10739;52.198;20.908;2024-03-23T08:01:57;99150.00;;;13.20
45850;BMP180;10739;52.198;20.908;2024-03-23T08:04:23;99154.00;;;13.40
45850;BMP180;10739;52.198;20.908;2024-03-23T08:06:49;99159.00;;;12.90
45850;BMP180;10739;52.198;20.908;2024-03-23T08:09:16;99148.00;;;12.90
45850;BMP180;10739;52.198;20.908;2024-03-23T08:11:42;99147.00;;;12.70
45850;BMP180;10739;52.198;20.908;2024-03-23T08:14:11;99152.00;;;12.90
45850;BMP180;10739;52.198;20.908;2024-03-23T08:16:37;99140.00;;;13.20
45850;BMP180;10739;52.198;20.908;2024-03-23T08:19:04;99139.00;;;12.80
45850;BMP180;10739;52.198;20.908;2024-03-23T08:21:31;99138.00;;;13.10
45850;BMP180;10739;52.198;20.908;2024-03-23T08:23:57;99132.00;;;13.00
45850;BMP180;10739;52.198;20.908;2024-03-23T08:26:23;99134.00;;;13.00
45850;BMP180;10739;52.198;20.908;2024-03-23T08:28:49;99129.00;;;13.00
45850;BMP180;10739;52.198;20.908;2024-03-23T08:31:15;99115.00;;;13.00
45850;BMP180;10739;52.198;20.908;2024-03-23T08:33:41;99113.00;;;13.00
45850;BMP180;10739;52.198;20.908;2024-03-23T08:36:11;99107.00;;;13.40
45850;BMP180;10739;52.198;20.908;2024-03-23T08:38:43;99104.00;;;14.00
45850;BMP180;10739;52.198;20.908;2024-03-23T08:41:11;99097.00;;;14.10
45850;BMP180;10739;52.198;20.908;2024-03-23T08:43:41;99087.00;;;13.80
45850;BMP180;10739;52.198;20.908;2024-03-23T08:46:13;99078.00;;;14.00
45850;BMP180;10739;52.198;20.908;2024-03-23T08:48:42;99079.00;;;13.90
45850;BMP180;10739;52.198;20.908;2024-03-23T08:51:13;99081.00;;;13.70
45850;BMP180;10739;52.198;20.908;2024-03-23T08:53:41;99085.00;;;14.00
45850;BMP180;10739;52.198;20.908;2024-03-23T08:56:08;99076.00;;;14.00
45850;BMP180;10739;52.198;20.908;2024-03-23T08:58:36;99082.00;;;13.70
45850;BMP180;10739;52.198;20.908;2024-03-23T09:01:13;99082.00;;;13.40
45850;BMP180;10739;52.198;20.908;2024-03-23T09:03:40;99061.00;;;13.70
45850;BMP180;10739;52.198;20.908;2024-03-23T09:06:11;99053.00;;;13.80
45850;BMP180;10739;52.198;20.908;2024-03-23T09:08:37;99059.00;;;13.80
45850;BMP180;10739;52.198;20.908;2024-03-23T09:11:06;99044.00;;;14.30
45850;BMP180;10739;52.198;20.908;2024-03-23T09:13:37;99036.00;;;14.30
45850;BMP180;10739;52.198;20.908;2024-03-23T09:16:04;99027.00;;;15.20
45850;BMP180;10739;52.198;20.908;2024-03-23T09:18:36;99016.00;;;15.90
45850;BMP180;10739;52.198;20.908;2024-03-23T09:21:03;99013.00;;;16.10
45850;BMP180;10739;52.198;20.908;2024-03-23T09:23:30;99007.00;;;16.10
45850;BMP180;10739;52.198;20.908;2024-03-23T09:25:56;99011.00;;;15.60
45850;BMP180;10739;52.198;20.908;2024-03-23T09:28:22;99006.00;;;15.40
45850;BMP180;10739;52.198;20.908;2024-03-23T09:30:49;99006.00;;;15.50
45850;BMP180;10739;52.198;20.908;2024-03-23T09:33:19;99019.00;;;14.90
45850;BMP180;10739;52.198;20.908;2024-03-23T09:35:45;99007.00;;;14.80
45850;BMP180;10739;52.198;20.908;2024-03-23T09:38:12;99006.00;;;14.90
45850;BMP180;10739;52.198;20.908;2024-03-23T09:40:42;99005.00;;;15.20
45850;BMP180;10739;52.198;20.908;2024-03-23T09:43:09;99001.00;;;15.40
45850;BMP180;10739;52.198;20.908;2024-03-23T09:45:44;98991.00;;;15.30
45850;BMP180;10739;52.198;20.908;2024-03-23T09:48:10;98989.00;;;15.50
45850;BMP180;10739;52.198;20.908;2024-03-23T09:50:38;98978.00;;;15.50
45850;BMP180;10739;52.198;20.908;2024-03-23T09:53:07;98975.00;;;15.50
45850;BMP180;10739;52.198;20.908;2024-03-23T09:55:34;98968.00;;;16.10
45850;BMP180;10739;52.198;20.908;2024-03-23T09:58:04;98955.00;;;16.50
45850;BMP180;10739;52.198;20.908;2024-03-23T10:00:32;98956.00;;;17.00
45850;BMP180;10739;52.198;20.908;2024-03-23T10:03:00;98944.00;;;16.70
45850;BMP180;10739;52.198;20.908;2024-03-23T10:05:31;98929.00;;;16.30
45850;BMP180;10739;52.198;20.908;2024-03-23T10:08:20;98912.00;;;17.60
45850;BMP180;10739;52.198;20.908;2024-03-23T10:10:46;98911.00;;;18.20
45850;BMP180;10739;52.198;20.908;2024-03-23T10:13:26;98895.00;;;18.90
45850;BMP180;10739;52.198;20.908;2024-03-23T10:15:58;98897.00;;;18.70
45850;BMP180;10739;52.198;20.908;2024-03-23T10:18:25;98889.00;;;20.20
45850;BMP180;10739;52.198;20.908;2024-03-23T10:21:14;98885.00;;;19.90
45850;BMP180;10739;52.198;20.908;2024-03-23T10:23:42;98875.00;;;18.60
45850;BMP180;10739;52.198;20.908;2024-03-23T10:26:24;98864.00;;;19.60
45850;BMP180;10739;52.198;20.908;2024-03-23T10:28:58;98863.00;;;20.00
45850;BMP180;10739;52.198;20.908;2024-03-23T10:31:30;98855.00;;;20.40
45850;BMP180;10739;52.198;20.908;2024-03-23T10:33:56;98862.00;;;19.10
45850;BMP180;10739;52.198;20.908;2024-03-23T10:36:24;98856.00;;;18.30
45850;BMP180;10739;52.198;20.908;2024-03-23T10:38:58;98847.00;;;17.50
45850;BMP180;10739;52.198;20.908;2024-03-23T10:41:39;98842.00;;;17.30
45850;BMP180;10739;52.198;20.908;2024-03-23T10:44:07;98843.00;;;17.30
45850;BMP180;10739;52.198;20.908;2024-03-23T10:46:33;98836.00;;;17.10
45850;BMP180;10739;52.198;20.908;2024-03-23T10:48:59;98841.00;;;17.20
45850;BMP180;10739;52.198;20.908;2024-03-23T10:51:26;98828.00;;;17.50
45850;BMP180;10739;52.198;20.908;2024-03-23T10:53:55;98833.00;;;17.70
45850;BMP180;10739;52.198;20.908;2024-03-23T10:56:22;98817.00;;;18.10
45850;BMP180;10739;52.198;20.908;2024-03-23T10:58:49;98807.00;;;17.90
45850;BMP180;10739;52.198;20.908;2024-03-23T11:01:16;98799.00;;;17.60
45850;BMP180;10739;52.198;20.908;2024-03-23T11:03:46;98783.00;;;17.70
45850;BMP180;10739;52.198;20.908;2024-03-23T11:06:37;98784.00;;;17.70
45850;BMP180;10739;52.198;20.908;2024-03-23T11:09:04;98786.00;;;17.60
45850;BMP180;10739;52.198;20.908;2024-03-23T11:11:50;98800.00;;;17.80
45850;BMP180;10739;52.198;20.908;2024-03-23T11:14:22;98796.00;;;18.10
45850;BMP180;10739;52.198;20.908;2024-03-23T11:17:08;98798.00;;;17.60
45850;BMP180;10739;52.198;20.908;2024-03-23T11:19:37;98792.00;;;17.90
45850;BMP180;10739;52.198;20.908;2024-03-23T11:22:04;98797.00;;;18.00
45850;BMP180;10739;52.198;20.908;2024-03-23T11:24:32;98779.00;;;18.10
45850;BMP180;10739;52.198;20.908;2024-03-23T11:26:59;98781.00;;;18.00
45850;BMP180;10739;52.198;20.908;2024-03-23T11:29:30;98771.00;;;18.80
45850;BMP180;10739;52.198;20.908;2024-03-23T11:31:56;98759.00;;;18.50
45850;BMP180;10739;52.198;20.908;2024-03-23T11:34:22;98758.00;;;18.20
45850;BMP180;10739;52.198;20.908;2024-03-23T11:36:49;98762.00;;;18.40
45850;BMP180;10739;52.198;20.908;2024-03-23T11:39:19;98742.00;;;18.30
45850;BMP180;10739;52.198;20.908;2024-03-23T11:41:53;98749.00;;;18.30
45850;BMP180;10739;52.198;20.908;2024-03-23T11:44:25;98739.00;;;18.60
45850;BMP180;10739;52.198;20.908;2024-03-23T11:46:52;98738.00;;;18.50
45850;BMP180;10739;52.198;20.908;2024-03-23T11:49:27;98722.00;;;18.80
45850;BMP180;10739;52.198;20.908;2024-03-23T11:51:56;98717.00;;;18.70
45850;BMP180;10739;52.198;20.908;2024-03-23T11:54:26;98714.00;;;19.00
45850;BMP180;10739;52.198;20.908;2024-03-23T11:57:07;98708.00;;;18.90
45850;BMP180;10739;52.198;20.908;2024-03-23T11:59:37;98709.00;;;18.30
45850;BMP180;10739;52.198;20.908;2024-03-23T12:02:11;98719.00;;;18.50
45850;BMP180;10739;52.198;20.908;2024-03-23T12:04:40;98702.00;;;18.60
45850;BMP180;10739;52.198;20.908;2024-03-23T12:07:18;98718.00;;;18.50
45850;BMP180;10739;52.198;20.908;2024-03-23T12:09:46;98694.00;;;18.60
45850;BMP180;10739;52.198;20.908;2024-03-23T12:12:18;98692.00;;;19.10
45850;BMP180;10739;52.198;20.908;2024-03-23T12:15:01;98690.00;;;19.00
45850;BMP180;10739;52.198;20.908;2024-03-23T12:17:27;98681.00;;;18.80
45850;BMP180;10739;52.198;20.908;2024-03-23T12:19:53;98687.00;;;19.10
45850;BMP180;10739;52.198;20.908;2024-03-23T12:22:23;98682.00;;;19.50
45850;BMP180;10739;52.198;20.908;2024-03-23T12:24:50;98671.00;;;19.20
45850;BMP180;10739;52.198;20.908;2024-03-23T12:27:16;98670.00;;;19.30
45850;BMP180;10739;52.198;20.908;2024-03-23T12:29:43;98659.00;;;18.90
45850;BMP180;10739;52.198;20.908;2024-03-23T12:32:13;98660.00;;;19.00
45850;BMP180;10739;52.198;20.908;2024-03-23T12:34:40;98659.00;;;18.70
45850;BMP180;10739;52.198;20.908;2024-03-23T12:37:07;98660.00;;;18.40
45850;BMP180;10739;52.198;20.908;2024-03-23T12:39:33;98659.00;;;18.30
45850;BMP180;10739;52.198;20.908;2024-03-23T12:42:02;98648.00;;;18.20
45850;BMP180;10739;52.198;20.908;2024-03-23T12:44:31;98647.00;;;18.30
45850;BMP180;10739;52.198;20.908;2024-03-23T12:46:57;98648.00;;;18.50
45850;BMP180;10739;52.198;20.908;2024-03-23T12:49:24;98642.00;;;18.30
45850;BMP180;10739;52.198;20.908;2024-03-23T12:51:56;98633.00;;;18.40
45850;BMP180;10739;52.198;20.908;2024-03-23T12:54:23;98627.00;;;18.70
45850;BMP180;10739;52.198;20.908;2024-03-23T12:56:50;98625.00;;;18.90
45850;BMP180;10739;52.198;20.908;2024-03-23T12:59:16;98609.00;;;19.10
45850;BMP180;10739;52.198;20.908;2024-03-23T13:01:45;98603.00;;;19.10
45850;BMP180;10739;52.198;20.908;2024-03-23T13:04:11;98604.00;;;19.10
45850;BMP180;10739;52.198;20.908;2024-03-23T13:06:38;98590.00;;;19.30
45850;BMP180;10739;52.198;20.908;2024-03-23T13:09:04;98587.00;;;19.30
45850;BMP180;10739;52.198;20.908;2024-03-23T13:11:31;98577.00;;;19.30
45850;BMP180;10739;52.198;20.908;2024-03-23T13:13:57;98582.00;;;19.40
45850;BMP180;10739;52.198;20.908;2024-03-23T13:16:24;98573.00;;;19.20
45850;BMP180;10739;52.198;20.908;2024-03-23T13:18:50;98575.00;;;19.10
45850;BMP180;10739;52.198;20.908;2024-03-23T13:21:16;98570.00;;;18.90
45850;BMP180;10739;52.198;20.908;2024-03-23T13:23:46;98555.00;;;18.90
45850;BMP180;10739;52.198;20.908;2024-03-23T13:26:13;98564.00;;;18.40
45850;BMP180;10739;52.198;20.908;2024-03-23T13:28:40;98556.00;;;18.70
45850;BMP180;10739;52.198;20.908;2024-03-23T13:31:12;98549.00;;;18.60
45850;BMP180;10739;52.198;20.908;2024-03-23T13:33:45;98542.00;;;18.80
45850;BMP180;10739;52.198;20.908;2024-03-23T13:36:17;98531.00;;;18.90
45850;BMP180;10739;52.198;20.908;2024-03-23T13:38:44;98522.00;;;18.70
45850;BMP180;10739;52.198;20.908;2024-03-23T13:41:10;98516.00;;;18.90
45850;BMP180;10739;52.198;20.908;2024-03-23T13:43:43;98514.00;;;18.90
45850;BMP180;10739;52.198;20.908;2024-03-23T13:46:10;98518.00;;;18.90
45850;BMP180;10739;52.198;20.908;2024-03-23T13:48:36;98512.00;;;19.00
45850;BMP180;10739;52.198;20.908;2024-03-23T13:51:04;98505.00;;;18.90
45850;BMP180;10739;52.198;20.908;2024-03-23T13:53:31;98498.00;;;19.10
45850;BMP180;10739;52.198;20.908;2024-03-23T13:55:58;98507.00;;;18.80
45850;BMP180;10739;52.198;20.908;2024-03-23T13:58:24;98505.00;;;18.70
45850;BMP180;10739;52.198;20.908;2024-03-23T14:00:53;98512.00;;;18.90
45850;BMP180;10739;52.198;20.908;2024-03-23T14:03:22;98501.00;;;18.70
45850;BMP180;10739;52.198;20.908;2024-03-23T14:05:48;98498.00;;;19.00
45850;BMP180;10739;52.198;20.908;2024-03-23T14:08:14;98490.00;;;18.70
45850;BMP180;10739;52.198;20.908;2024-03-23T14:10:42;98484.00;;;18.70
45850;BMP180;10739;52.198;20.908;2024-03-23T14:13:08;98477.00;;;18.60
45850;BMP180;10739;52.198;20.908;2024-03-23T14:15:34;98476.00;;;18.90
45850;BMP180;10739;52.198;20.908;2024-03-23T14:18:02;98461.00;;;19.10
45850;BMP180;10739;52.198;20.908;2024-03-23T14:20:29;98449.00;;;18.80
45850;BMP180;10739;52.198;20.908;2024-03-23T14:22:55;98439.00;;;18.70
45850;BMP180;10739;52.198;20.908;2024-03-23T14:25:22;98442.00;;;18.80
45850;BMP180;10739;52.198;20.908;2024-03-23T14:27:52;98437.00;;;18.90
45850;BMP180;10739;52.198;20.908;2024-03-23T14:30:19;98430.00;;;19.00
45850;BMP180;10739;52.198;20.908;2024-03-23T14:32:46;98429.00;;;19.00
45850;BMP180;10739;52.198;20.908;2024-03-23T14:35:12;98427.00;;;19.00
45850;BMP180;10739;52.198;20.908;2024-03-23T14:37:38;98426.00;;;19.00
45850;BMP180;10739;52.198;20.908;2024-03-23T14:40:05;98426.00;;;19.00
45850;BMP180;10739;52.198;20.908;2024-03-23T14:42:32;98423.00;;;18.80
45850;BMP180;10739;52.198;20.908;2024-03-23T14:44:58;98431.00;;;18.80
45850;BMP180;10739;52.198;20.908;2024-03-23T14:47:25;98431.00;;;19.00
45850;BMP180;10739;52.198;20.908;2024-03-23T14:49:51;98433.00;;;18.80
45850;BMP180;10739;52.198;20.908;2024-03-23T14:52:17;98440.00;;;18.30